Terminal Aerodrome Forecast
Issued by NWS

Home | Current Version | Previous Version | Text Only | Print | Product List | Glossary On
Versions: 1 2 3 4 5 6 7 8 9 10 11 12 13 14 15
634
FTAK31 PAJN 231139
TAFAKT
TAF
PAKT 231139Z 2312/2412 15010KT P6SM -RA FEW020 OVC040 WS020/18025KT
     FM231500 15012KT 5SM RA BKN015 OVC025 WS020/16035KT
     FM231700 14020G30KT 3SM RA BR SCT005 OVC015 WS020/14045KT
     FM232000 14028G38KT 2SM RA BR BKN007 OVC015 WS020/16050KT
     FM240000 15020G30KT 3SM SHRA BR SCT007 OVC015 WS020/20045KT
     FM240500 15010KT 4SM -SHRA BR OVC015
      AMD LTD TO CLD VIS AND WIND 2312/2315=

USA.gov is the U.S. government's official web portal to all federal, state and local government web resources and services.